sensor_id;sensor_type;location;lat;lon;timestamp;pressure;altitude;pressure_sealevel;temperature;humidity
3590;BME280;1809;48.470;9.226;2023-06-04T00:00:55;-16580.16;;;14.76;100.00
3590;BME280;1809;48.470;9.226;2023-06-04T00:03:22;-16578.19;;;14.69;100.00
3590;BME280;1809;48.470;9.226;2023-06-04T00:05:48;-16577.34;;;14.66;100.00
3590;BME280;1809;48.470;9.226;2023-06-04T00:08:13;-16575.94;;;14.61;100.00
3590;BME280;1809;48.470;9.226;2023-06-04T00:10:38;-16573.72;;;14.53;100.00
3590;BME280;1809;48.470;9.226;2023-06-04T00:13:05;-16574.28;;;14.55;100.00
3590;BME280;1809;48.470;9.226;2023-06-04T00:15:30;-16573.16;;;14.51;100.00
3590;BME280;1809;48.470;9.226;2023-06-04T00:17:56;-16570.34;;;14.41;100.00
3590;BME280;1809;48.470;9.226;2023-06-04T00:20:22;-16568.09;;;14.33;100.00
3590;BME280;1809;48.470;9.226;2023-06-04T00:22:47;-16568.94;;;14.36;100.00
3590;BME280;1809;48.470;9.226;2023-06-04T00:25:12;-16566.41;;;14.27;100.00
3590;BME280;1809;48.470;9.226;2023-06-04T00:27:38;-16565.56;;;14.24;100.00
3590;BME280;1809;48.470;9.226;2023-06-04T00:30:04;-16565.28;;;14.23;100.00
3590;BME280;1809;48.470;9.226;2023-06-04T00:32:29;-16563.88;;;14.18;100.00
3590;BME280;1809;48.470;9.226;2023-06-04T00:34:56;-16564.31;;;14.19;100.00
3590;BME280;1809;48.470;9.226;2023-06-04T00:37:23;-16562.22;;;14.12;100.00
3590;BME280;1809;48.470;9.226;2023-06-04T00:39:48;-16561.38;;;14.09;100.00
3590;BME280;1809;48.470;9.226;2023-06-04T00:42:15;-16562.63;;;14.13;100.00
3590;BME280;1809;48.470;9.226;2023-06-04T00:44:40;-16559.97;;;14.04;100.00
3590;BME280;1809;48.470;9.226;2023-06-04T00:47:13;-16558.28;;;13.97;100.00
3590;BME280;1809;48.470;9.226;2023-06-04T00:49:39;-16558.84;;;13.99;100.00
3590;BME280;1809;48.470;9.226;2023-06-04T00:52:05;-16559.81;;;14.03;100.00
3590;BME280;1809;48.470;9.226;2023-06-04T00:54:30;-16558.28;;;13.97;100.00
3590;BME280;1809;48.470;9.226;2023-06-04T00:56:58;-16558.00;;;13.96;100.00
3590;BME280;1809;48.470;9.226;2023-06-04T00:59:23;-16558.97;;;14.00;100.00
3590;BME280;1809;48.470;9.226;2023-06-04T01:04:42;-16556.72;;;13.92;100.00
3590;BME280;1809;48.470;9.226;2023-06-04T01:07:09;-16555.47;;;13.87;100.00
3590;BME280;1809;48.470;9.226;2023-06-04T01:09:38;-16553.38;;;13.80;100.00
3590;BME280;1809;48.470;9.226;2023-06-04T01:12:05;-16552.66;;;13.77;100.00
3590;BME280;1809;48.470;9.226;2023-06-04T01:14:31;-16552.09;;;13.75;100.00
3590;BME280;1809;48.470;9.226;2023-06-04T01:17:14;-16551.81;;;13.74;100.00
3590;BME280;1809;48.470;9.226;2023-06-04T01:25:20;-16548.88;;;13.64;100.00
3590;BME280;1809;48.470;9.226;2023-06-04T01:27:49;-16547.34;;;13.58;100.00
3590;BME280;1809;48.470;9.226;2023-06-04T01:30:16;-16550.16;;;13.68;100.00
3590;BME280;1809;48.470;9.226;2023-06-04T01:32:42;-16551.81;;;13.74;100.00
3590;BME280;1809;48.470;9.226;2023-06-04T01:35:09;-16551.28;;;13.72;100.00
3590;BME280;1809;48.470;9.226;2023-06-04T01:37:36;-16550.44;;;13.69;100.00
3590;BME280;1809;48.470;9.226;2023-06-04T01:40:01;-16549.03;;;13.64;100.00
3590;BME280;1809;48.470;9.226;2023-06-04T01:42:26;-16547.63;;;13.59;100.00
3590;BME280;1809;48.470;9.226;2023-06-04T01:44:52;-16550.69;;;13.70;100.00
3590;BME280;1809;48.470;9.226;2023-06-04T01:47:17;-16548.75;;;13.63;100.00
3590;BME280;1809;48.470;9.226;2023-06-04T01:49:42;-16547.34;;;13.58;100.00
3590;BME280;1809;48.470;9.226;2023-06-04T01:52:07;-16544.97;;;13.50;100.00
3590;BME280;1809;48.470;9.226;2023-06-04T01:54:33;-16544.81;;;13.49;100.00
3590;BME280;1809;48.470;9.226;2023-06-04T01:56:59;-16542.56;;;13.41;100.00
3590;BME280;1809;48.470;9.226;2023-06-04T01:59:24;-16539.75;;;13.31;100.00
3590;BME280;1809;48.470;9.226;2023-06-04T02:01:50;-16538.94;;;13.28;100.00
3590;BME280;1809;48.470;9.226;2023-06-04T02:04:15;-16541.16;;;13.36;100.00
3590;BME280;1809;48.470;9.226;2023-06-04T02:06:41;-16211.41;;;13.24;100.00
3590;BME280;1809;48.470;9.226;2023-06-04T02:09:06;-15318.09;;;13.15;100.00
3590;BME280;1809;48.470;9.226;2023-06-04T02:11:31;-13547.13;;;13.07;100.00
3590;BME280;1809;48.470;9.226;2023-06-04T02:13:57;-4552.97;;;13.09;100.00
3590;BME280;1809;48.470;9.226;2023-06-04T02:16:22;-4219.66;;;13.11;100.00
3590;BME280;1809;48.470;9.226;2023-06-04T02:18:47;1789.69;;;13.14;100.00
3590;BME280;1809;48.470;9.226;2023-06-04T02:21:13;-5219.91;;;13.09;100.00
3590;BME280;1809;48.470;9.226;2023-06-04T02:23:38;-5552.28;;;12.99;100.00
3590;BME280;1809;48.470;9.226;2023-06-04T02:26:03;-1215.78;;;12.92;100.00
3590;BME280;1809;48.470;9.226;2023-06-04T02:28:29;5801.13;;;13.01;100.00
3590;BME280;1809;48.470;9.226;2023-06-04T02:30:54;8812.44;;;12.95;100.00
3590;BME280;1809;48.470;9.226;2023-06-04T02:33:19;16521.13;;;12.94;100.00
3590;BME280;1809;48.470;9.226;2023-06-04T02:35:45;20548.84;;;12.89;100.00
3590;BME280;1809;48.470;9.226;2023-06-04T02:38:11;21889.09;;;12.78;100.00
3590;BME280;1809;48.470;9.226;2023-06-04T02:40:36;26931.50;;;12.74;100.00
3590;BME280;1809;48.470;9.226;2023-06-04T02:43:02;29959.53;;;12.70;100.00
3590;BME280;1809;48.470;9.226;2023-06-04T02:45:27;32315.31;;;12.65;100.00
3590;BME280;1809;48.470;9.226;2023-06-04T02:47:53;34334.91;;;12.60;100.00
3590;BME280;1809;48.470;9.226;2023-06-04T02:50:19;37030.72;;;12.55;100.00
3590;BME280;1809;48.470;9.226;2023-06-04T02:52:45;41423.38;;;12.60;100.00
3590;BME280;1809;48.470;9.226;2023-06-04T02:55:10;41762.28;;;12.62;100.00
3590;BME280;1809;48.470;9.226;2023-06-04T02:57:39;37031.91;;;12.57;100.00
3590;BME280;1809;48.470;9.226;2023-06-04T03:00:06;33990.94;;;12.47;100.00
3590;BME280;1809;48.470;9.226;2023-06-04T03:02:44;30282.34;;;12.41;100.00
3590;BME280;1809;48.470;9.226;2023-06-04T03:05:12;23554.16;;;12.36;100.00
3590;BME280;1809;48.470;9.226;2023-06-04T03:07:39;13155.38;;;12.35;100.00
3590;BME280;1809;48.470;9.226;2023-06-04T03:10:06;-4213.88;;;12.39;100.00
3590;BME280;1809;48.470;9.226;2023-06-04T03:12:32;-11634.69;;;12.30;100.00
3590;BME280;1809;48.470;9.226;2023-06-04T03:14:57;-2547.38;;;12.34;100.00
3590;BME280;1809;48.470;9.226;2023-06-04T03:17:23;1454.56;;;12.26;100.00
3590;BME280;1809;48.470;9.226;2023-06-04T03:19:48;13153.56;;;12.26;100.00
3590;BME280;1809;48.470;9.226;2023-06-04T03:22:13;27922.53;;;12.32;100.00
3590;BME280;1809;48.470;9.226;2023-06-04T03:24:40;28934.09;;;12.37;100.00
3590;BME280;1809;48.470;9.226;2023-06-04T03:27:07;15837.41;;;12.42;100.00
3590;BME280;1809;48.470;9.226;2023-06-04T03:29:33;9473.13;;;12.32;100.00
3590;BME280;1809;48.470;9.226;2023-06-04T03:31:59;16173.38;;;12.45;100.00
3590;BME280;1809;48.470;9.226;2023-06-04T03:34:25;22210.06;;;12.35;100.00
3590;BME280;1809;48.470;9.226;2023-06-04T03:36:51;25232.19;;;12.31;100.00
3590;BME280;1809;48.470;9.226;2023-06-04T03:39:17;26909.69;;;12.23;100.00
3590;BME280;1809;48.470;9.226;2023-06-04T03:41:43;30607.28;;;12.17;100.00
3590;BME280;1809;48.470;9.226;2023-06-04T03:44:08;33636.16;;;12.14;100.00
3590;BME280;1809;48.470;9.226;2023-06-04T03:46:34;36669.19;;;12.14;100.00
3590;BME280;1809;48.470;9.226;2023-06-04T03:49:00;39032.66;;;12.18;100.00
3590;BME280;1809;48.470;9.226;2023-06-04T03:51:26;34322.28;;;12.36;100.00
3590;BME280;1809;48.470;9.226;2023-06-04T03:53:51;24222.31;;;12.26;100.00
3590;BME280;1809;48.470;9.226;2023-06-04T03:56:17;24900.06;;;12.41;100.00
3590;BME280;1809;48.470;9.226;2023-06-04T03:58:42;15173.97;;;12.72;100.00
3590;BME280;1809;48.470;9.226;2023-06-04T04:01:07;-8885.41;;;13.08;100.00
3590;BME280;1809;48.470;9.226;2023-06-04T04:03:36;-16543.56;;;13.44;100.00
3590;BME280;1809;48.470;9.226;2023-06-04T04:06:02;-16552.38;;;13.76;100.00
3590;BME280;1809;48.470;9.226;2023-06-04T04:08:27;-16560.81;;;14.07;100.00
3590;BME280;1809;48.470;9.226;2023-06-04T04:10:57;-16578.19;;;14.69;100.00
3590;BME280;1809;48.470;9.226;2023-06-04T04:13:22;-16594.44;;;15.28;100.00
3590;BME280;1809;48.470;9.226;2023-06-04T04:15:47;-16610.84;;;15.87;100.00
3590;BME280;1809;48.470;9.226;2023-06-04T04:18:19;-16626.69;;;16.44;100.00
3590;BME280;1809;48.470;9.226;2023-06-04T04:20:46;-16634.81;;;16.73;100.00
3590;BME280;1809;48.470;9.226;2023-06-04T04:23:11;-16645.03;;;17.10;100.00
3590;BME280;1809;48.470;9.226;2023-06-04T04:25:37;-16651.63;;;17.34;100.00
3590;BME280;1809;48.470;9.226;2023-06-04T04:28:03;-16651.06;;;17.32;100.00
3590;BME280;1809;48.470;9.226;2023-06-04T04:30:33;-16657.50;;;17.55;100.00
3590;BME280;1809;48.470;9.226;2023-06-04T04:33:03;-16671.22;;;18.04;100.00
3590;BME280;1809;48.470;9.226;2023-06-04T04:35:31;-16683.25;;;18.48;100.00
3590;BME280;1809;48.470;9.226;2023-06-04T04:37:58;-16705.34;;;19.27;100.00
3590;BME280;1809;48.470;9.226;2023-06-04T04:40:24;-16722.00;;;19.88;100.00
3590;BME280;1809;48.470;9.226;2023-06-04T04:42:49;-16739.19;;;20.50;100.00
3590;BME280;1809;48.470;9.226;2023-06-04T04:45:14;-16757.63;;;21.16;100.00
3590;BME280;1809;48.470;9.226;2023-06-04T04:47:40;-16766.84;;;21.50;100.00
3590;BME280;1809;48.470;9.226;2023-06-04T04:50:05;-16776.06;;;21.83;100.00
3590;BME280;1809;48.470;9.226;2023-06-04T04:52:31;-16787.81;;;22.25;100.00
3590;BME280;1809;48.470;9.226;2023-06-04T04:54:56;-16805.25;;;22.88;100.00
3590;BME280;1809;48.470;9.226;2023-06-04T04:57:25;-16812.81;;;23.16;100.00
3590;BME280;1809;48.470;9.226;2023-06-04T04:59:50;-16819.06;;;23.38;100.00
3590;BME280;1809;48.470;9.226;2023-06-04T05:02:16;-16827.72;;;23.70;100.00
3590;BME280;1809;48.470;9.226;2023-06-04T05:04:41;-16836.94;;;24.03;100.00
3590;BME280;1809;48.470;9.226;2023-06-04T05:07:07;-16846.28;;;24.37;100.00
3590;BME280;1809;48.470;9.226;2023-06-04T05:09:32;-16854.78;;;24.68;100.00
3590;BME280;1809;48.470;9.226;2023-06-04T05:11:57;-16868.44;;;25.17;95.13
3590;BME280;1809;48.470;9.226;2023-06-04T05:14:23;-16866.22;;;25.09;93.46
3590;BME280;1809;48.470;9.226;2023-06-04T05:16:48;-16879.19;;;25.56;91.52
3590;BME280;1809;48.470;9.226;2023-06-04T05:19:15;-16890.19;;;25.96;81.28
3590;BME280;1809;48.470;9.226;2023-06-04T05:21:41;-16891.03;;;25.99;80.58
3590;BME280;1809;48.470;9.226;2023-06-04T05:24:07;-16901.59;;;26.37;76.52
3590;BME280;1809;48.470;9.226;2023-06-04T05:26:32;-16908.84;;;26.63;72.02
3590;BME280;1809;48.470;9.226;2023-06-04T05:28:58;-16886.84;;;25.84;74.52
3590;BME280;1809;48.470;9.226;2023-06-04T05:31:24;-16912.75;;;26.78;73.62
3590;BME280;1809;48.470;9.226;2023-06-04T05:33:51;-16921.66;;;27.10;68.61
3590;BME280;1809;48.470;9.226;2023-06-04T05:36:17;-16917.47;;;26.95;67.95
3590;BME280;1809;48.470;9.226;2023-06-04T05:38:42;-16888.94;;;25.91;76.55
3590;BME280;1809;48.470;9.226;2023-06-04T05:41:08;-16896.03;;;26.17;75.49
3590;BME280;1809;48.470;9.226;2023-06-04T05:43:33;-16913.59;;;26.81;66.87
3590;BME280;1809;48.470;9.226;2023-06-04T05:45:58;-16923.59;;;27.17;62.83
3590;BME280;1809;48.470;9.226;2023-06-04T05:48:24;-16938.09;;;27.69;56.88
3590;BME280;1809;48.470;9.226;2023-06-04T05:50:50;-16939.91;;;27.76;55.01
3590;BME280;1809;48.470;9.226;2023-06-04T05:53:15;-16926.13;;;27.26;55.29
3590;BME280;1809;48.470;9.226;2023-06-04T05:55:41;-16938.50;;;27.71;55.54
3590;BME280;1809;48.470;9.226;2023-06-04T05:58:06;-16928.63;;;27.35;58.42
3590;BME280;1809;48.470;9.226;2023-06-04T06:00:32;-16951.72;;;28.19;55.85
3590;BME280;1809;48.470;9.226;2023-06-04T06:02:57;-16936.41;;;27.63;58.96
3590;BME280;1809;48.470;9.226;2023-06-04T06:05:23;-16920.53;;;27.06;60.99
3590;BME280;1809;48.470;9.226;2023-06-04T06:07:48;-16939.19;;;27.73;57.29
3590;BME280;1809;48.470;9.226;2023-06-04T06:10:14;-16894.78;;;26.12;74.17
3590;BME280;1809;48.470;9.226;2023-06-04T06:12:40;-16931.97;;;27.47;59.83
3590;BME280;1809;48.470;9.226;2023-06-04T06:15:06;-16933.06;;;27.51;57.62
3590;BME280;1809;48.470;9.226;2023-06-04T06:17:32;-16957.28;;;28.39;54.25
3590;BME280;1809;48.470;9.226;2023-06-04T06:20:01;-16891.03;;;25.99;65.35
3590;BME280;1809;48.470;9.226;2023-06-04T06:22:31;-16942.69;;;27.86;60.51
3590;BME280;1809;48.470;9.226;2023-06-04T06:24:56;-16964.94;;;28.67;52.43
3590;BME280;1809;48.470;9.226;2023-06-04T06:27:21;-16933.22;;;27.52;54.83
3590;BME280;1809;48.470;9.226;2023-06-04T06:29:46;-16978.13;;;29.15;50.48
3590;BME280;1809;48.470;9.226;2023-06-04T06:32:12;-17008.00;;;30.23;42.12
3590;BME280;1809;48.470;9.226;2023-06-04T06:34:38;-16957.41;;;28.40;49.81
3590;BME280;1809;48.470;9.226;2023-06-04T06:37:04;-16964.25;;;28.64;46.49
3590;BME280;1809;48.470;9.226;2023-06-04T06:39:29;-16965.22;;;28.68;48.57
3590;BME280;1809;48.470;9.226;2023-06-04T06:41:55;-16970.91;;;28.89;49.21
3590;BME280;1809;48.470;9.226;2023-06-04T06:44:20;-16975.50;;;29.05;49.13
3590;BME280;1809;48.470;9.226;2023-06-04T06:46:45;-16955.19;;;28.32;56.90
3590;BME280;1809;48.470;9.226;2023-06-04T06:49:12;-16956.59;;;28.37;60.77
3590;BME280;1809;48.470;9.226;2023-06-04T06:51:37;-16971.88;;;28.92;54.76
3590;BME280;1809;48.470;9.226;2023-06-04T06:54:02;-16967.28;;;28.75;54.70
3590;BME280;1809;48.470;9.226;2023-06-04T06:56:28;-16965.50;;;28.69;56.45
3590;BME280;1809;48.470;9.226;2023-06-04T06:58:53;-16938.63;;;27.71;63.16
3590;BME280;1809;48.470;9.226;2023-06-04T07:01:19;-16938.38;;;27.70;65.73
3590;BME280;1809;48.470;9.226;2023-06-04T07:03:44;-16943.38;;;27.89;63.32
3590;BME280;1809;48.470;9.226;2023-06-04T07:06:10;-16942.53;;;27.86;69.27
3590;BME280;1809;48.470;9.226;2023-06-04T07:08:35;-16973.13;;;28.97;60.23
3590;BME280;1809;48.470;9.226;2023-06-04T07:11:02;-16965.78;;;28.70;60.07
3590;BME280;1809;48.470;9.226;2023-06-04T07:13:28;-16920.00;;;27.04;73.48
3590;BME280;1809;48.470;9.226;2023-06-04T07:15:54;-16914.56;;;26.84;80.91
3590;BME280;1809;48.470;9.226;2023-06-04T07:18:25;-16944.91;;;27.94;74.08
3590;BME280;1809;48.470;9.226;2023-06-04T07:20:54;-16947.53;;;28.04;72.77
3590;BME280;1809;48.470;9.226;2023-06-04T07:23:20;-16913.31;;;26.80;87.85
3590;BME280;1809;48.470;9.226;2023-06-04T07:25:52;-16901.88;;;26.38;96.83
3590;BME280;1809;48.470;9.226;2023-06-04T07:28:20;-16907.19;;;26.57;97.93
3590;BME280;1809;48.470;9.226;2023-06-04T07:30:48;-16927.66;;;27.32;92.82
3590;BME280;1809;48.470;9.226;2023-06-04T07:33:17;-16943.22;;;27.88;88.19
3590;BME280;1809;48.470;9.226;2023-06-04T07:35:45;-16954.91;;;28.30;81.08
3590;BME280;1809;48.470;9.226;2023-06-04T07:38:15;-16950.59;;;28.15;79.56
3590;BME280;1809;48.470;9.226;2023-06-04T07:40:47;-16942.53;;;27.86;82.93
3590;BME280;1809;48.470;9.226;2023-06-04T07:43:21;-16942.25;;;27.85;81.23
3590;BME280;1809;48.470;9.226;2023-06-04T07:46:01;-16936.69;;;27.64;86.43
3590;BME280;1809;48.470;9.226;2023-06-04T07:48:27;-16877.66;;;25.50;100.00
3590;BME280;1809;48.470;9.226;2023-06-04T07:50:57;-16885.31;;;25.78;100.00
3590;BME280;1809;48.470;9.226;2023-06-04T07:53:23;-16916.66;;;26.92;97.17
3590;BME280;1809;48.470;9.226;2023-06-04T07:55:49;-16931.97;;;27.47;87.36
3590;BME280;1809;48.470;9.226;2023-06-04T07:58:15;-16928.91;;;27.36;88.55
3590;BME280;1809;48.470;9.226;2023-06-04T08:00:41;-16907.47;;;26.58;99.93
3590;BME280;1809;48.470;9.226;2023-06-04T08:03:06;-16892.13;;;26.03;100.00
3590;BME280;1809;48.470;9.226;2023-06-04T08:05:32;-16875.41;;;25.42;100.00
3590;BME280;1809;48.470;9.226;2023-06-04T08:07:59;-16889.22;;;25.92;100.00
3590;BME280;1809;48.470;9.226;2023-06-04T08:10:25;-16877.09;;;25.48;100.00
3590;BME280;1809;48.470;9.226;2023-06-04T08:12:51;-16836.94;;;24.03;100.00
3590;BME280;1809;48.470;9.226;2023-06-04T08:15:17;-16832.19;;;23.86;100.00
3590;BME280;1809;48.470;9.226;2023-06-04T08:17:43;-16810.84;;;23.09;100.00
3590;BME280;1809;48.470;9.226;2023-06-04T08:20:08;-16807.34;;;22.96;100.00
3590;BME280;1809;48.470;9.226;2023-06-04T08:22:34;-16798.41;;;22.64;100.00
3590;BME280;1809;48.470;9.226;2023-06-04T08:25:00;-16809.88;;;23.05;100.00
3590;BME280;1809;48.470;9.226;2023-06-04T08:27:25;-16793.66;;;22.46;100.00
3590;BME280;1809;48.470;9.226;2023-06-04T08:29:50;-16800.09;;;22.70;100.00
3590;BME280;1809;48.470;9.226;2023-06-04T08:32:17;-16795.91;;;22.55;100.00
3590;BME280;1809;48.470;9.226;2023-06-04T08:34:43;-16796.47;;;22.57;100.00
3590;BME280;1809;48.470;9.226;2023-06-04T08:37:08;-16793.66;;;22.46;100.00
3590;BME280;1809;48.470;9.226;2023-06-04T08:39:34;-16795.34;;;22.52;100.00
3590;BME280;1809;48.470;9.226;2023-06-04T08:42:01;-16795.78;;;22.54;100.00
3590;BME280;1809;48.470;9.226;2023-06-04T08:44:29;-16796.31;;;22.56;100.00
3590;BME280;1809;48.470;9.226;2023-06-04T08:47:04;-16798.69;;;22.65;100.00
3590;BME280;1809;48.470;9.226;2023-06-04T08:49:35;-16807.50;;;22.96;100.00
3590;BME280;1809;48.470;9.226;2023-06-04T08:52:04;-16812.38;;;23.14;100.00
3590;BME280;1809;48.470;9.226;2023-06-04T08:54:32;-16815.72;;;23.26;100.00
3590;BME280;1809;48.470;9.226;2023-06-04T08:56:57;-16811.53;;;23.11;100.00
3590;BME280;1809;48.470;9.226;2023-06-04T08:59:26;-16817.53;;;23.33;100.00
3590;BME280;1809;48.470;9.226;2023-06-04T09:01:55;-16810.00;;;23.06;100.00
3590;BME280;1809;48.470;9.226;2023-06-04T09:04:21;-16811.69;;;23.12;100.00
3590;BME280;1809;48.470;9.226;2023-06-04T09:06:47;-16810.41;;;23.07;100.00
3590;BME280;1809;48.470;9.226;2023-06-04T09:09:14;-16803.44;;;22.82;100.00
3590;BME280;1809;48.470;9.226;2023-06-04T09:11:55;-16805.25;;;22.88;100.00
3590;BME280;1809;48.470;9.226;2023-06-04T09:14:21;-16803.59;;;22.82;100.00
3590;BME280;1809;48.470;9.226;2023-06-04T09:16:53;-16805.53;;;22.89;100.00
3590;BME280;1809;48.470;9.226;2023-06-04T09:19:20;-16798.41;;;22.64;100.00
3590;BME280;1809;48.470;9.226;2023-06-04T09:21:56;-16804.00;;;22.84;100.00
3590;BME280;1809;48.470;9.226;2023-06-04T09:24:37;-16814.06;;;23.20;100.00
3590;BME280;1809;48.470;9.226;2023-06-04T09:27:09;-16820.19;;;23.42;100.00
3590;BME280;1809;48.470;9.226;2023-06-04T09:29:35;-16819.34;;;23.39;100.00
3590;BME280;1809;48.470;9.226;2023-06-04T09:32:01;-16827.72;;;23.70;100.00
3590;BME280;1809;48.470;9.226;2023-06-04T09:34:29;-16825.91;;;23.63;100.00
3590;BME280;1809;48.470;9.226;2023-06-04T09:36:55;-16825.22;;;23.61;100.00
3590;BME280;1809;48.470;9.226;2023-06-04T09:39:21;-16827.03;;;23.67;100.00
3590;BME280;1809;48.470;9.226;2023-06-04T09:42:01;-16829.97;;;23.78;100.00
3590;BME280;1809;48.470;9.226;2023-06-04T09:44:29;-16830.25;;;23.79;100.00
3590;BME280;1809;48.470;9.226;2023-06-04T09:46:58;-16831.06;;;23.82;100.00
3590;BME280;1809;48.470;9.226;2023-06-04T09:49:23;-16834.84;;;23.95;100.00
3590;BME280;1809;48.470;9.226;2023-06-04T09:51:49;-16838.19;;;24.07;100.00
3590;BME280;1809;48.470;9.226;2023-06-04T09:54:15;-16841.13;;;24.18;100.00
3590;BME280;1809;48.470;9.226;2023-06-04T09:56:41;-16839.88;;;24.14;100.00
3590;BME280;1809;48.470;9.226;2023-06-04T09:59:08;-16842.25;;;24.22;100.00
3590;BME280;1809;48.470;9.226;2023-06-04T10:01:38;-16843.06;;;24.25;100.00
3590;BME280;1809;48.470;9.226;2023-06-04T10:04:07;-16840.00;;;24.14;100.00
3590;BME280;1809;48.470;9.226;2023-06-04T10:06:34;-16850.88;;;24.53;100.00
3590;BME280;1809;48.470;9.226;2023-06-04T10:09:06;-16858.13;;;24.80;100.00
3590;BME280;1809;48.470;9.226;2023-06-04T10:11:39;-16859.53;;;24.85;100.00
3590;BME280;1809;48.470;9.226;2023-06-04T10:14:21;-16859.13;;;24.83;100.00
3590;BME280;1809;48.470;9.226;2023-06-04T10:16:49;-16860.94;;;24.90;100.00
3590;BME280;1809;48.470;9.226;2023-06-04T10:19:16;-16865.09;;;25.05;100.00
3590;BME280;1809;48.470;9.226;2023-06-04T10:21:43;-16869.00;;;25.19;99.35
3590;BME280;1809;48.470;9.226;2023-06-04T10:24:08;-16870.97;;;25.26;97.11
3590;BME280;1809;48.470;9.226;2023-06-04T10:26:34;-16875.00;;;25.41;98.15
3590;BME280;1809;48.470;9.226;2023-06-04T10:29:03;-16872.63;;;25.32;94.57
3590;BME280;1809;48.470;9.226;2023-06-04T10:31:32;-16873.19;;;25.34;90.39
3590;BME280;1809;48.470;9.226;2023-06-04T10:33:57;-16879.59;;;25.57;91.01
3590;BME280;1809;48.470;9.226;2023-06-04T10:36:24;-16881.41;;;25.64;91.67
3590;BME280;1809;48.470;9.226;2023-06-04T10:38:54;-16885.44;;;25.79;95.18
3590;BME280;1809;48.470;9.226;2023-06-04T10:41:21;-16883.50;;;25.72;93.04
3590;BME280;1809;48.470;9.226;2023-06-04T10:43:48;-16872.34;;;25.31;89.48
3590;BME280;1809;48.470;9.226;2023-06-04T10:46:19;-16867.91;;;25.15;90.15
3590;BME280;1809;48.470;9.226;2023-06-04T10:48:51;-16863.72;;;25.00;91.27
3590;BME280;1809;48.470;9.226;2023-06-04T10:51:33;-16866.22;;;25.09;92.22
3590;BME280;1809;48.470;9.226;2023-06-04T10:54:00;-16868.72;;;25.18;88.44
3590;BME280;1809;48.470;9.226;2023-06-04T10:56:27;-16861.91;;;24.93;91.90
3590;BME280;1809;48.470;9.226;2023-06-04T10:58:52;-16870.13;;;25.23;94.12
3590;BME280;1809;48.470;9.226;2023-06-04T11:01:28;-16861.75;;;24.93;88.87
3590;BME280;1809;48.470;9.226;2023-06-04T11:03:55;-16859.25;;;24.84;90.31
3590;BME280;1809;48.470;9.226;2023-06-04T11:06:21;-16855.34;;;24.70;92.61
3590;BME280;1809;48.470;9.226;2023-06-04T11:08:48;-16847.81;;;24.42;96.96
3590;BME280;1809;48.470;9.226;2023-06-04T11:11:17;-16846.13;;;24.36;98.25
3590;BME280;1809;48.470;9.226;2023-06-04T11:13:43;-16845.88;;;24.35;92.64
3590;BME280;1809;48.470;9.226;2023-06-04T11:16:19;-16863.72;;;25.00;89.64
3590;BME280;1809;48.470;9.226;2023-06-04T11:18:57;-16877.66;;;25.50;79.50
3590;BME280;1809;48.470;9.226;2023-06-04T11:21:23;-16881.56;;;25.64;75.53
3590;BME280;1809;48.470;9.226;2023-06-04T11:23:49;-16885.03;;;25.77;68.23
3590;BME280;1809;48.470;9.226;2023-06-04T11:26:20;-16880.16;;;25.59;66.76
3590;BME280;1809;48.470;9.226;2023-06-04T11:28:48;-16885.19;;;25.78;66.34
3590;BME280;1809;48.470;9.226;2023-06-04T11:31:14;-16887.97;;;25.88;72.61
3590;BME280;1809;48.470;9.226;2023-06-04T11:33:46;-16882.81;;;25.69;72.10
3590;BME280;1809;48.470;9.226;2023-06-04T11:36:26;-16900.22;;;26.32;72.82
3590;BME280;1809;48.470;9.226;2023-06-04T11:38:58;-16886.28;;;25.82;68.82
3590;BME280;1809;48.470;9.226;2023-06-04T11:41:28;-16877.94;;;25.51;72.87
3590;BME280;1809;48.470;9.226;2023-06-04T11:43:55;-16877.66;;;25.50;73.63
3590;BME280;1809;48.470;9.226;2023-06-04T11:46:20;-16882.81;;;25.69;71.08
3590;BME280;1809;48.470;9.226;2023-06-04T11:48:45;-16891.03;;;25.99;68.08
3590;BME280;1809;48.470;9.226;2023-06-04T11:51:12;-16902.44;;;26.40;63.46
3590;BME280;1809;48.470;9.226;2023-06-04T11:53:37;-16901.34;;;26.36;60.44
3590;BME280;1809;48.470;9.226;2023-06-04T11:56:04;-16893.25;;;26.07;62.66
3590;BME280;1809;48.470;9.226;2023-06-04T11:58:30;-16896.19;;;26.17;71.02
3590;BME280;1809;48.470;9.226;2023-06-04T12:00:56;-16890.47;;;25.97;70.07
3590;BME280;1809;48.470;9.226;2023-06-04T12:03:51;-16890.03;;;25.95;73.34
3590;BME280;1809;48.470;9.226;2023-06-04T12:06:18;-16892.41;;;26.04;74.72
3590;BME280;1809;48.470;9.226;2023-06-04T12:08:54;-16892.97;;;26.06;68.58
3590;BME280;1809;48.470;9.226;2023-06-04T12:11:33;-16878.75;;;25.54;69.96
3590;BME280;1809;48.470;9.226;2023-06-04T12:14:00;-16884.34;;;25.75;73.73
3590;BME280;1809;48.470;9.226;2023-06-04T12:16:26;-16892.69;;;26.05;69.02
3590;BME280;1809;48.470;9.226;2023-06-04T12:19:12;-16900.22;;;26.32;69.22
3590;BME280;1809;48.470;9.226;2023-06-04T12:21:38;-16900.50;;;26.33;64.18
3590;BME280;1809;48.470;9.226;2023-06-04T12:24:08;-16898.00;;;26.24;63.86
3590;BME280;1809;48.470;9.226;2023-06-04T12:26:34;-16894.22;;;26.10;64.35
3590;BME280;1809;48.470;9.226;2023-06-04T12:29:17;-16889.06;;;25.92;68.85
3590;BME280;1809;48.470;9.226;2023-06-04T12:31:45;-16879.03;;;25.55;65.00
3590;BME280;1809;48.470;9.226;2023-06-04T12:34:14;-16872.06;;;25.30;69.53
3590;BME280;1809;48.470;9.226;2023-06-04T12:36:39;-16876.25;;;25.45;60.98
3590;BME280;1809;48.470;9.226;2023-06-04T12:39:06;-16884.34;;;25.75;59.39
3590;BME280;1809;48.470;9.226;2023-06-04T12:41:32;-16890.75;;;25.98;54.86
3590;BME280;1809;48.470;9.226;2023-06-04T12:43:59;-16898.41;;;26.26;56.66
3590;BME280;1809;48.470;9.226;2023-06-04T12:46:25;-16898.25;;;26.25;56.00
3590;BME280;1809;48.470;9.226;2023-06-04T12:48:51;-16897.44;;;26.22;55.66
3590;BME280;1809;48.470;9.226;2023-06-04T12:51:17;-16903.69;;;26.45;59.02
3590;BME280;1809;48.470;9.226;2023-06-04T12:53:43;-16913.03;;;26.79;57.57
3590;BME280;1809;48.470;9.226;2023-06-04T12:56:09;-16906.75;;;26.56;50.88
3590;BME280;1809;48.470;9.226;2023-06-04T12:58:34;-16906.63;;;26.55;50.75
3590;BME280;1809;48.470;9.226;2023-06-04T13:01:00;-16901.19;;;26.36;51.47
3590;BME280;1809;48.470;9.226;2023-06-04T13:03:26;-16895.34;;;26.14;54.57
3590;BME280;1809;48.470;9.226;2023-06-04T13:05:52;-16900.50;;;26.33;50.23
3590;BME280;1809;48.470;9.226;2023-06-04T13:08:19;-16901.06;;;26.35;50.75
3590;BME280;1809;48.470;9.226;2023-06-04T13:10:46;-16898.53;;;26.26;50.33
3590;BME280;1809;48.470;9.226;2023-06-04T13:13:11;-16902.16;;;26.39;51.41
3590;BME280;1809;48.470;9.226;2023-06-04T13:15:36;-16905.22;;;26.50;51.80